METAR Data
IDs: Format: Raw Decoded Include TAF

Data at: 1402 UTC 10 Aug 2022

KVCB 101353Z AUTO 23004KT 10SM CLR 17/12 A3002 RMK AO2 SLP164 T01720117
KVCB 101253Z AUTO 10SM CLR 16/11 A3000 RMK AO2 SLP159 T01610111
KVCB 101153Z AUTO 22008KT 10SM CLR 17/12 A2999 RMK AO2 SLP155 T01670117 10194 20167 53004
KVCB 101053Z AUTO 22006KT 10SM CLR 17/12 A2999 RMK AO2 SLP153 T01720117
KVCB 100953Z AUTO 23004KT 10SM CLR 17/11 A2999 RMK AO2 SLP152 T01720111
KVCB 100853Z AUTO 19003KT 10SM CLR 18/12 A2998 RMK AO2 SLP151 T01780122 53000
KVCB 100753Z AUTO 18007KT 10SM CLR 18/12 A2998 RMK AO2 SLP149 T01830117 403330161
KVCB 100653Z AUTO 21005KT 10SM CLR 19/12 A2998 RMK AO2 SLP151 T01890117
KVCB 100553Z AUTO 12004KT 10SM CLR 19/12 A2998 RMK AO2 SLP150 T01890117 10311 20189 53020
KVCB 100453Z AUTO 21008KT 10SM CLR 20/12 A2996 RMK AO2 SLP143 T02000117
KVCB 100353Z AUTO 21009G15KT 10SM CLR 22/12 A2994 RMK AO2 SLP135 T02220117
KVCB 100253Z AUTO 22010G15KT 10SM CLR 24/11 A2992 RMK AO2 SLP130 T02440111 53010
KVCB 100153Z AUTO 20010G16KT 10SM CLR 26/11 A2991 RMK AO2 SLP126 T02610106
KVCB 100053Z AUTO 22013G22KT 10SM CLR 29/10 A2990 RMK AO2 SLP123 T02890100
KVCB 092353Z AUTO 22016G21KT 10SM CLR 31/10 A2989 RMK AO2 SLP120 T03110100 10333 20278 56012
KVCB 092253Z AUTO 22016G19KT 10SM CLR 32/09 A2990 RMK AO2 SLP122 T03220089
KVCB 092153Z AUTO 21008G17KT 10SM CLR 32/10 A2991 RMK AO2 SLP126 T03220100
KVCB 092053Z AUTO 20011G19KT 10SM CLR 31/12 A2993 RMK AO2 SLP132 T03110117 58005
KVCB 091953Z AUTO 22013G22KT 10SM CLR 31/10 A2993 RMK AO2 SLP133 T03110100
KVCB 091853Z AUTO 19009KT 160V230 10SM CLR 29/11 A2994 RMK AO2 SLP136 T02940111
KVCB 091753Z AUTO 20008KT 10SM CLR 28/12 A2994 RMK AO2 SLP136 T02780122 10278 20161 50004
KVCB 091653Z AUTO 20007KT 160V230 10SM CLR 24/13 A2994 RMK AO2 SLP137 T02440128
KVCB 091553Z AUTO 22007KT 10SM CLR 22/12 A2994 RMK AO2 SLP136 T02220122
KVCB 091453Z AUTO 22008KT 10SM CLR 20/12 A2993 RMK AO2 SLP132 T02000117 51010
KVCB 091353Z AUTO 24005KT 10SM CLR 17/12 A2992 RMK AO2 SLP130 T01720117
KVCB 091253Z AUTO 24006KT 10SM CLR 18/12 A2991 RMK AO2 SLP126 T01780117
KVCB 091153Z AUTO 00000KT 10SM CLR 17/12 A2990 RMK AO2 SLP122 T01720117 10228 20167 53005
KVCB 091053Z AUTO 22003KT 10SM CLR 19/12 A2988 RMK AO2 SLP116 T01940122
KVCB 090953Z AUTO 23004KT 10SM CLR 19/12 A2988 RMK AO2 SLP116 T01940122
KVCB 090853Z AUTO 21005KT 10SM CLR 20/12 A2988 RMK AO2 SLP117 T02000122 58001
KVCB 090753Z AUTO 00000KT 10SM CLR 21/12 A2989 RMK AO2 SLP120 T02060117 403390128
KVCB 090653Z AUTO 21003KT 10SM CLR 21/11 A2989 RMK AO2 SLP119 T02110106
KVCB 090553Z AUTO 22005KT 10SM CLR 23/10 A2988 RMK AO2 SLP118 T02280100 10333 20228 50004
KVCB 090453Z AUTO 21003KT 10SM CLR 24/11 A2989 RMK AO2 SLP120 T02440111
KVCB 090353Z AUTO 20006KT 10SM CLR 24/11 A2988 RMK AO2 SLP116 T02440106
KVCB 090253Z AUTO 21007KT 170V240 10SM CLR 27/11 A2987 RMK AO2 SLP113 T02670106 53001